Home > Products > Valid Products > MTR

000
SAUS41 KLWX 211305
MTRRSP
METAR KRSP 211254Z AUTO 27006KT 10SM FEW022 10/07 RMK AO2 SLPNO
T01000072 $





000
SAUS41 KLWX 211300
MTRRYT
METAR KRYT 211253Z AUTO 00000KT 6SM BR CLR 08/08 A2986 RMK AO2
SLP114 T00830078 $





000
SAUS41 KLWX 211259 COR
MTRDMH
METAR KDMH 211254Z AUTO 15/10 A2988 RMK AO1 SLP116 T01500100





000
SAUS41 KLWX 211255
MTRNAK
METAR KNAK 211254Z AUTO 00000KT 10SM CLR 14/09 A2988 RMK AO2 SLP120
T01390089





000
SAUS41 KLWX 211205
MTRRSP
METAR KRSP 211154Z AUTO 27007KT 10SM CLR 09/07 RMK AO2 SLPNO 70005
T00890067 10106 20089 $





000
SAUS41 KLWX 211205
MTRRSP
METAR KRSP 211154Z AUTO 27007KT 10SM CLR 09/07 RMK AO2 SLPNO 70005
T00890067 10106 20089 $





000
SAUS41 KLWX 211200
MTRRYT
METAR KRYT 211153Z AUTO 00000KT 9SM BKN041 BKN100 08/08 A2985 RMK
AO2 SLP110 70003 T00830078 10106 20078 53003 $





000
SAUS41 KLWX 211200
MTRRYT
METAR KRYT 211153Z AUTO 00000KT 9SM BKN041 BKN100 08/08 A2985 RMK
AO2 SLP110 70003 T00830078 10106 20078 53003 $





000
SAUS41 KLWX 211159 COR
MTRDMH
METAR KDMH 211154Z AUTO 12/09 A2987 RMK AO1 SLP115 T01220094 10139
20117 53002





000
SAUS41 KLWX 211159 COR
MTRDMH
METAR KDMH 211154Z AUTO 12/09 A2987 RMK AO1 SLP115 T01220094 10139
20117 53002





000
SAUS41 KLWX 211155
MTRNAK
METAR KNAK 211154Z AUTO 00000KT 10SM FEW120 12/09 A2987 RMK AO2
SLP117 60000 T01220089 10144 20117 53004





000
SAUS41 KLWX 211155
MTRNAK
METAR KNAK 211154Z AUTO 00000KT 10SM FEW120 12/09 A2987 RMK AO2
SLP117 60000 T01220089 10144 20117 53004





000
SAUS41 KLWX 211106
MTRRSP
METAR KRSP 211054Z AUTO 30006KT 10SM SCT100 09/07 RMK AO2 SLPNO
T00890072 $





000
SAUS41 KLWX 211106
MTRRSP
METAR KRSP 211054Z AUTO 30006KT 10SM SCT100 09/07 RMK AO2 SLPNO
T00890072 $





000
SAUS41 KLWX 211100
MTRRYT
METAR KRYT 211053Z AUTO 00000KT 7SM BKN070 BKN090 08/08 A2984 RMK
AO2 SLP107 T00830078 $





000
SAUS41 KLWX 211100
MTRRYT
METAR KRYT 211053Z AUTO 00000KT 7SM BKN070 BKN090 08/08 A2984 RMK
AO2 SLP107 T00830078 $





000
SAUS41 KLWX 211059 COR
MTRDMH
METAR KDMH 211054Z AUTO 12/09 A2986 RMK AO1 SLP113 T01220089





000
SAUS41 KLWX 211059 COR
MTRDMH
METAR KDMH 211054Z AUTO 12/09 A2986 RMK AO1 SLP113 T01220089





000
SAUS41 KLWX 211055
MTRNAK
METAR KNAK 211054Z AUTO 00000KT 10SM CLR 13/08 A2986 RMK AO2 SLP112
T01280083





000
SAUS41 KLWX 211055
MTRNAK
METAR KNAK 211054Z AUTO 00000KT 10SM CLR 13/08 A2986 RMK AO2 SLP112
T01280083





000
SAUS41 KLWX 211005
MTRRSP
METAR KRSP 210954Z AUTO 28006KT 10SM FEW100 09/07 RMK AO2 SLPNO
T00940067 $





000
SAUS41 KLWX 211005
MTRRSP
METAR KRSP 210954Z AUTO 28006KT 10SM FEW100 09/07 RMK AO2 SLPNO
T00940067 $





000
SAUS41 KLWX 211000
MTRRYT
METAR KRYT 210953Z AUTO 00000KT 3SM BR SCT100 08/07 A2984 RMK AO2
SLP107 T00780072 $





000
SAUS41 KLWX 211000
MTRRYT
METAR KRYT 210953Z AUTO 00000KT 3SM BR SCT100 08/07 A2984 RMK AO2
SLP107 T00780072 $





000
SAUS41 KLWX 210959 COR
MTRDMH
METAR KDMH 210954Z AUTO 12/09 A2986 RMK AO1 SLP112 T01220089





000
SAUS41 KLWX 210959 COR
MTRDMH
METAR KDMH 210954Z AUTO 12/09 A2986 RMK AO1 SLP112 T01220089





000
SAUS41 KLWX 210955
MTRNAK
METAR KNAK 210954Z AUTO 29003KT 10SM OVC110 14/09 A2985 RMK AO2
SLP110 T01390089





000
SAUS41 KLWX 210955
MTRNAK
METAR KNAK 210954Z AUTO 29003KT 10SM OVC110 14/09 A2985 RMK AO2
SLP110 T01390089





000
SAUS41 KLWX 210906
MTRRSP
METAR KRSP 210854Z AUTO 29007KT 10SM FEW043 10/07 RMK AO2 SLPNO
T01000067 $





000
SAUS41 KLWX 210900
MTRRYT
METAR KRYT 210853Z AUTO 00000KT 7SM SCT049 BKN080 09/08 A2984 RMK
AO2 SLP105 T00940083 56013 $





000
SAUS41 KLWX 210859 COR
MTRDMH
METAR KDMH 210854Z AUTO 13/09 A2986 RMK AO1 SLP112 T01280089 56015





000
SAUS41 KLWX 210855
MTRNAK
METAR KNAK 210854Z AUTO 00000KT 10SM BKN110 14/09 A2986 RMK AO2
SLP113 60000 T01390089 56016





000
SAUS41 KLWX 210833
MTRRYT
SPECI KRYT 210826Z AUTO 00000KT 8SM BKN047 09/09 A2985 RMK AO2 $





000
SAUS41 KLWX 210825
MTRRYT
SPECI KRYT 210818Z AUTO 00000KT 2 1/2SM BR BKN047 09/08 A2985 RMK
AO2 $





000
SAUS41 KLWX 210806
MTRRSP
METAR KRSP 210754Z AUTO 27006KT 10SM SCT050 10/08 RMK AO2 SLPNO
T01000078 $





000
SAUS41 KLWX 210800
MTRRYT
METAR KRYT 210753Z AUTO 00000KT 4SM BR SCT060 10/09 A2985 RMK AO2
SLP107 T01000089 $





000
SAUS41 KLWX 210759 COR
MTRDMH
METAR KDMH 210754Z AUTO 13/09 A2988 RMK AO1 SLP117 T01330089





000
SAUS41 KLWX 210755
MTRNAK
METAR KNAK 210754Z AUTO 00000KT 10SM SCT110 13/09 A2987 RMK AO2
SLP116 T01330089





000
SAUS41 KLWX 210706
MTRRSP
METAR KRSP 210654Z AUTO 26006KT 10SM BKN050 OVC055 11/08 RMK AO2
SLPNO T01060083 $





000
SAUS41 KLWX 210700
MTRRYT
METAR KRYT 210653Z AUTO 00000KT 8SM OVC060 10/09 A2986 RMK AO2
SLP113 T01000094 $





000
SAUS41 KLWX 210659 COR
MTRDMH
METAR KDMH 210654Z AUTO 13/09 A2989 RMK AO1 SLP121 T01330089





000
SAUS41 KLWX 210656
MTRNAK
METAR KNAK 210654Z AUTO 15005KT 10SM FEW060 BKN090 OVC120 14/08
A2988 RMK AO2 RAE00 SLP120 P0000 T01440083





000
SAUS41 KLWX 210605
MTRRSP
METAR KRSP 210554Z AUTO VRB05KT 10SM SCT055 OVC095 11/08 RMK AO2
SLPNO 60005 T01060078 10122 20094 $





000
SAUS41 KLWX 210600
MTRRYT
METAR KRYT 210553Z AUTO 00000KT 7SM BKN065 OVC100 10/09 A2988 RMK
AO2 SLP117 60003 T01000089 10122 20100 56011 $





000
SAUS41 KLWX 210559 COR
MTRDMH
METAR KDMH 210554Z AUTO 14/09 A2991 RMK AO1 SLP127 T01390089 10161
20139 56019





000
SAUS41 KLWX 210556
MTRNAK
METAR KNAK 210554Z AUTO 15003KT 10SM -RA BKN080 OVC100 14/08 A2990
RMK AO2 RAB12 SLP128 P0000 60000 T01390078 10161 20139 56019





000
SAUS41 KLWX 210505
MTRRSP
METAR KRSP 210454Z AUTO VRB06KT 10SM OVC060 10/08 RMK AO2 RAE0356
SLPNO P0000 T01000083 401330056 $





000
SAUS41 KLWX 210500
MTRRYT
METAR KRYT 210453Z AUTO 00000KT 1 3/4SM BR FEW001 BKN070 OVC100
10/09 A2989 RMK AO2 RAE13 SLP122 P0001 T01000089 401500022 $





000
SAUS41 KLWX 210459 COR
MTRDMH
METAR KDMH 210454Z AUTO 14/08 A2993 RMK AO1 SLP135 T01440078
401940061





000
SAUS41 KLWX 210455
MTRNAK
METAR KNAK 210454Z AUTO 00000KT 10SM FEW080 OVC100 14/07 A2993 RMK
AO2 RAB32E45 SLP136 P0000 T01440067 401830050





000
SAUS41 KLWX 210455
MTRNAK
METAR KNAK 210454Z AUTO 00000KT 10SM FEW080 OVC100 14/07 A2993 RMK
AO2 RAB32E45 SLP136 P0000 T01440067 401830050





000
SAUS41 KLWX 210448
MTRRYT
SPECI KRYT 210441Z AUTO 00000KT 1 3/4SM BR FEW001 BKN070 OVC100
10/09 A2989 RMK AO2 RAE13 P0001 $





000
SAUS41 KLWX 210406
MTRRSP
METAR KRSP 210354Z AUTO VRB04KT 10SM -RA BKN050 OVC065 10/08 RMK AO2
RAB24 SLPNO P0002 T01000078 $





000
SAUS41 KLWX 210406
MTRRSP
METAR KRSP 210354Z AUTO VRB04KT 10SM -RA BKN050 OVC065 10/08 RMK AO2
RAB24 SLPNO P0002 T01000078 $





000
SAUS41 KLWX 210400
MTRRYT
METAR KRYT 210353Z AUTO 00000KT 7SM -RA FEW050 OVC065 11/09 A2991
RMK AO2 RAB37 SLP129 P0002 T01060094 $





000
SAUS41 KLWX 210400
MTRRYT
METAR KRYT 210353Z AUTO 00000KT 7SM -RA FEW050 OVC065 11/09 A2991
RMK AO2 RAB37 SLP129 P0002 T01060094 $





000
SAUS41 KLWX 210359 COR
MTRDMH
METAR KDMH 210354Z AUTO 15/07 A2994 RMK AO1 SLP137 T01500067





000
SAUS41 KLWX 210359 COR
MTRDMH
METAR KDMH 210354Z AUTO 15/07 A2994 RMK AO1 SLP137 T01500067





000
SAUS41 KLWX 210355
MTRNAK
METAR KNAK 210354Z AUTO 20004KT 10SM BKN060 BKN080 15/06 A2994 RMK
AO2 SLP139 T01500061





000
SAUS41 KLWX 210355
MTRNAK
METAR KNAK 210354Z AUTO 20004KT 10SM BKN060 BKN080 15/06 A2994 RMK
AO2 SLP139 T01500061





000
SAUS41 KLWX 210306
MTRRSP
METAR KRSP 210254Z AUTO 18005KT 10SM BKN065 BKN075 OVC100 11/07 RMK
AO2 SLPNO 60003 T01060072 $





000
SAUS41 KLWX 210306
MTRRSP
METAR KRSP 210254Z AUTO 18005KT 10SM BKN065 BKN075 OVC100 11/07 RMK
AO2 SLPNO 60003 T01060072 $





000
SAUS41 KLWX 210301 COR
MTRDMH
METAR KDMH 210254Z AUTO 15/06 A2996 RMK AO1 SLP146 T01500061 50001





000
SAUS41 KLWX 210300
MTRRYT
METAR KRYT 210253Z AUTO 00000KT 10SM SCT070 SCT085 OVC110 11/09
A2993 RMK AO2 SLP135 60000 T01060089 58003 $





000
SAUS41 KLWX 210300
MTRRYT
METAR KRYT 210253Z AUTO 00000KT 10SM SCT070 SCT085 OVC110 11/09
A2993 RMK AO2 SLP135 60000 T01060089 58003 $





000
SAUS41 KLWX 210300 COR
MTRDMH
METAR KDMH 210254Z AUTO 15/06 A2996 RMK AO1 SLP146 T01500061 50001





000
SAUS41 KLWX 210300 COR
MTRDMH
METAR KDMH 210254Z AUTO 15/06 A2996 RMK AO1 SLP146 T01500061 50001





000
SAUS41 KLWX 210259 COR
MTRDMH
METAR KDMH 210254Z AUTO 15/06 A2996 RMK AO1 SLP146 T01500061 50001





000
SAUS41 KLWX 210259 COR
MTRDMH
METAR KDMH 210254Z AUTO 15/06 A2996 RMK AO1 SLP146 T01500061 50001





000
SAUS41 KLWX 210255
MTRNAK
METAR KNAK 210254Z AUTO 19005KT 10SM FEW055 16/06 A2996 RMK AO2
SLP147 T01560056 58001





000
SAUS41 KLWX 210205
MTRRSP
METAR KRSP 210154Z AUTO 00000KT 10SM OVC095 10/08 RMK AO2 RAE30
SLPNO P0000 T01000078 $





000
SAUS41 KLWX 210205
MTRRSP
METAR KRSP 210154Z AUTO 00000KT 10SM OVC095 10/08 RMK AO2 RAE30
SLPNO P0000 T01000078 $





000
SAUS41 KLWX 210200
MTRRYT
METAR KRYT 210153Z AUTO 00000KT 10SM OVC085 11/09 A2993 RMK AO2
SLP138 T01060089 $





000
SAUS41 KLWX 210200
MTRRYT
METAR KRYT 210153Z AUTO 00000KT 10SM OVC085 11/09 A2993 RMK AO2
SLP138 T01060089 $





000
SAUS41 KLWX 210159 COR
MTRDMH
METAR KDMH 210154Z AUTO 15/07 A2997 RMK AO1 SLP147 T01500067





000
SAUS41 KLWX 210159 COR
MTRDMH
METAR KDMH 210154Z AUTO 15/07 A2997 RMK AO1 SLP147 T01500067





000
SAUS41 KLWX 210155
MTRNAK
METAR KNAK 210154Z AUTO 18005KT 10SM FEW055 16/06 A2997 RMK AO2
SLP150 T01560056





000
SAUS41 KLWX 210155
MTRNAK
METAR KNAK 210154Z AUTO 18005KT 10SM FEW055 16/06 A2997 RMK AO2
SLP150 T01560056





000
SAUS41 KLWX 210106
MTRRSP
METAR KRSP 210054Z AUTO 22005KT 8SM -RA OVC049 09/07 RMK AO2 RAB2357
SLPNO P0003 T00940072 $





000
SAUS41 KLWX 210100
MTRRYT
METAR KRYT 210053Z AUTO 21003KT 10SM OVC070 11/08 A2994 RMK AO2
RAB20E32 SLP143 P0000 T01110083 $





000
SAUS41 KLWX 210059 COR
MTRDMH
METAR KDMH 210054Z AUTO 16/07 A2996 RMK AO1 SLP146 T01560067





000
SAUS41 KLWX 210055
MTRNAK
METAR KNAK 210054Z AUTO 18008KT 10SM CLR 16/06 A2997 RMK AO2 SLP150
T01560061





000
SAUS41 KLWX 210005
MTRRSP
METAR KRSP 202354Z AUTO 23006KT 10SM FEW045 OVC060 12/06 RMK AO2
RAB38E54 SLPNO P0000 60000 T01220056 10133 20117 $





000
SAUS41 KLWX 210000
MTRRYT
METAR KRYT 202353Z AUTO 00000KT 10SM FEW060 OVC090 12/07 A2994 RMK
AO2 SLP143 T01170067 10150 20111 55001 $





000
SAUS41 KLWX 202359 COR
MTRDMH
METAR KDMH 202354Z AUTO 16/08 A2996 RMK AO1 SLP145 T01610078 10194
20161 53003





000
SAUS41 KLWX 202355
MTRNAK
METAR KNAK 202354Z AUTO 18008KT 10SM CLR 16/06 A2996 RMK AO2 SLP148
T01610061 10183 20156 53003





000
SAUS41 KLWX 202306
MTRRSP
METAR KRSP 202254Z AUTO 22006KT 10SM BKN070 BKN080 12/04 RMK AO2
SLPNO T01220039 $





000
SAUS41 KLWX 202300
MTRRYT
METAR KRYT 202253Z AUTO 00000KT 10SM OVC080 13/06 A2993 RMK AO2
SLP141 T01280061 $





000
SAUS41 KLWX 202300 COR
MTRDMH
METAR KDMH 202254Z AUTO 17/07 A2996 RMK AO1 SLP143 T01720072





000
SAUS41 KLWX 202257 COR
MTRNAK
METAR KNAK 202254Z AUTO 18007KT 10SM CLR 16/07 A2996 RMK AO2 SLP147
T01610067





000
SAUS41 KLWX 202257 COR
MTRNAK
METAR KNAK 202254Z AUTO 18007KT 10SM CLR 16/07 A2996 RMK AO2 SLP147
T01610067





000
SAUS41 KLWX 202256 COR
MTRNAK
METAR KNAK 202254Z AUTO 18007KT 10SM CLR 16/07 A2996 RMK AO2 SLP147
T01610067





000
SAUS41 KLWX 202255
MTRNAK
METAR KNAK 202254Z AUTO 18007KT 10SM CLR 16/07 A2996 RMK AO2 SLP147
T01610067





000
SAUS41 KLWX 202205
MTRRSP
METAR KRSP 202154Z AUTO 22004KT 10SM SCT120 12/04 RMK AO2 SLPNO
T01220044 $





000
SAUS41 KLWX 202205
MTRRSP
METAR KRSP 202154Z AUTO 22004KT 10SM SCT120 12/04 RMK AO2 SLPNO
T01220044 $





000
SAUS41 KLWX 202200
MTRRYT
METAR KRYT 202153Z AUTO 00000KT 10SM FEW120 13/06 A2993 RMK AO2
SLP141 T01330061 $





000
SAUS41 KLWX 202200
MTRRYT
METAR KRYT 202153Z AUTO 00000KT 10SM FEW120 13/06 A2993 RMK AO2
SLP141 T01330061 $





000
SAUS41 KLWX 202159 COR
MTRDMH
METAR KDMH 202154Z AUTO 18/08 A2995 RMK AO1 SLP142 T01830078





000
SAUS41 KLWX 202159 COR
MTRDMH
METAR KDMH 202154Z AUTO 18/08 A2995 RMK AO1 SLP142 T01830078





000
SAUS41 KLWX 202155
MTRNAK
METAR KNAK 202154Z AUTO 18007KT 10SM CLR 16/08 A2995 RMK AO2 SLP144
T01610078





000
SAUS41 KLWX 202155
MTRNAK
METAR KNAK 202154Z AUTO 18007KT 10SM CLR 16/08 A2995 RMK AO2 SLP144
T01610078





000
SAUS41 KLWX 202106
MTRRSP
METAR KRSP 202054Z AUTO 25004KT 10SM CLR 12/04 RMK AO2 SLPNO
T01220039 $





000
SAUS41 KLWX 202100
MTRRYT
METAR KRYT 202053Z AUTO 00000KT 10SM CLR 14/05 A2994 RMK AO2 SLP143
T01440050 56008 $





000
SAUS41 KLWX 202059 COR
MTRDMH
METAR KDMH 202054Z AUTO 19/06 A2995 RMK AO1 SLP142 T01890061 56014





000
SAUS41 KLWX 202055
MTRNAK
METAR KNAK 202054Z AUTO 17008KT 10SM CLR 17/07 A2995 RMK AO2 SLP145
T01720072 56014





000
SAUS41 KLWX 202005
MTRRSP
METAR KRSP 201954Z AUTO VRB04KT 10SM CLR 12/03 RMK AO2 SLPNO
T01220033 $





000
SAUS41 KLWX 202000
MTRRYT
METAR KRYT 201953Z AUTO 22004KT 10SM CLR 14/04 A2994 RMK AO2 SLP143
T01440039 $





000
SAUS41 KLWX 201959 COR
MTRDMH
METAR KDMH 201954Z AUTO 19/07 A2996 RMK AO1 SLP145 T01940067





000
SAUS41 KLWX 201955
MTRNAK
METAR KNAK 201954Z AUTO 17010KT 10SM CLR 18/07 A2996 RMK AO2 SLP147
T01830072





000
SAUS41 KLWX 201906
MTRRSP
METAR KRSP 201854Z AUTO 23005KT 10SM CLR 12/03 RMK AO2 SLPNO
T01220028 $





000
SAUS41 KLWX 201900
MTRRYT
METAR KRYT 201853Z AUTO 23005KT 10SM CLR 14/03 A2994 RMK AO2 SLP143
T01440028 $





000
SAUS41 KLWX 201859 COR
MTRDMH
METAR KDMH 201854Z AUTO 19/05 A2997 RMK AO1 SLP148 T01890050





000
SAUS41 KLWX 201856
MTRNAK
METAR KNAK 201854Z AUTO 18015G20KT 10SM CLR 18/07 A2998 RMK AO2
SLP153 T01780067





000
SAUS41 KLWX 201805
MTRRSP
METAR KRSP 201754Z AUTO VRB06KT 10SM CLR 12/02 RMK AO2 SLPNO
T01220022 10128 20067 $





000
SAUS41 KLWX 201800
MTRRYT
METAR KRYT 201753Z AUTO 24006KT 10SM CLR 15/03 A2996 RMK AO2 SLP150
T01500033 10150 20033 58028 $





000
SAUS41 KLWX 201759 COR
MTRDMH
METAR KDMH 201754Z AUTO 18/04 A2999 RMK AO1 SLP156 T01830044 10189
20083 56044





000
SAUS41 KLWX 201756
MTRNAK
METAR KNAK 201754Z AUTO 18011KT 10SM CLR 17/07 A3000 RMK AO2 SLP159
T01720067 10172 20067 58042





000
SAUS41 KLWX 201706
MTRRSP
METAR KRSP 201654Z AUTO VRB05KT 10SM CLR 12/02 RMK AO2 SLPNO
T01220022 $





000
SAUS41 KLWX 201700
MTRRYT
METAR KRYT 201653Z AUTO 00000KT 10SM CLR 14/03 A2999 RMK AO2 SLP160
T01390033 $





000
SAUS41 KLWX 201659 COR
MTRDMH
METAR KDMH 201654Z AUTO 18/04 A3003 RMK AO1 SLP168 T01780039





000
SAUS41 KLWX 201655
MTRNAK
METAR KNAK 201654Z AUTO 16012KT 10SM CLR 17/05 A3004 RMK AO2 PRESFR
SLP173 T01670050





000
SAUS41 KLWX 201605
MTRRSP
METAR KRSP 201554Z AUTO VRB06KT 10SM CLR 11/01 RMK AO2 SLPNO
T01110011 $





000
SAUS41 KLWX 201600
MTRRYT
METAR KRYT 201553Z AUTO 00000KT 10SM CLR 12/02 A3002 RMK AO2 SLP171
T01220022 $





000
SAUS41 KLWX 201559 COR
MTRDMH
METAR KDMH 201554Z AUTO 16/05 A3008 RMK AO1 SLP186 T01560050





000
SAUS41 KLWX 201555
MTRNAK
METAR KNAK 201554Z AUTO 17011G21KT 10SM CLR 16/06 A3009 RMK AO2
SLP189 T01560061





000
SAUS41 KLWX 201506
MTRRSP
METAR KRSP 201454Z AUTO 20011G17KT 10SM CLR 10/00 RMK AO2 SLPNO
T01000000 $





000
SAUS41 KLWX 201500
MTRRYT
METAR KRYT 201453Z AUTO 23007KT 190V280 10SM CLR 12/02 A3005 RMK AO2
SLP180 T01170017 58010 $





000
SAUS41 KLWX 201459 COR
MTRDMH
METAR KDMH 201454Z AUTO 13/05 A3012 RMK AO1 SLP200 T01330050 58000





000
SAUS41 KLWX 201455
MTRNAK
METAR KNAK 201454Z AUTO 18011KT 10SM CLR 14/06 A3012 RMK AO2 SLP201
T01440056 58001





000
SAUS41 KLWX 201405
MTRRSP
METAR KRSP 201354Z AUTO 21011G17KT 10SM CLR 08/00 RMK AO2 SLPNO
T00830000 $





000
SAUS41 KLWX 201400
MTRRYT
METAR KRYT 201353Z AUTO 00000KT 10SM CLR 09/02 A3007 RMK AO2 SLP188
T00940022 $





000
SAUS41 KLWX 201359 COR
MTRDMH
METAR KDMH 201354Z AUTO 12/03 A3014 RMK AO1 SLP205 T01170033





000
SAUS41 KLWX 201355
MTRNAK
METAR KNAK 201354Z AUTO 00000KT 10SM CLR 12/06 A3014 RMK AO2 SLP207
T01220056





000
SAUS41 KLWX 201306
MTRRSP
METAR KRSP 201254Z AUTO 22009G15KT 10SM CLR 07/M01 RMK AO2 SLPNO
T00721006 $





000
SAUS41 KLWX 201300
MTRRYT
METAR KRYT 201253Z AUTO 00000KT 10SM CLR 06/03 A3009 RMK AO2 SLP196
T00560028 $





000
SAUS41 KLWX 201259 COR
MTRDMH
METAR KDMH 201254Z AUTO 10/03 A3014 RMK AO1 SLP204 T01000028





000
SAUS41 KLWX 201256
MTRNAK
METAR KNAK 201254Z AUTO 00000KT 10SM CLR 11/03 A3013 RMK AO2 SLP206
T01060033





000
SAUS41 KLWX 201206
MTRRSP
METAR KRSP 201154Z AUTO 22008KT 10SM CLR 07/M01 RMK AO2 SLPNO
T00671006 10067 20056 $





000
SAUS41 KLWX 201200
MTRRYT
METAR KRYT 201153Z AUTO 00000KT 10SM CLR 04/02 A3008 RMK AO2 SLP194
70001 T00390017 10044 20022 53007 $





000
SAUS41 KLWX 201159 COR
MTRDMH
METAR KDMH 201154Z AUTO 08/03 A3012 RMK AO1 SLP200 T00780028 10089
20061 51005





000
SAUS41 KLWX 201156
MTRNAK
METAR KNAK 201154Z AUTO 00000KT 10SM CLR 07/02 A3012 RMK AO2 SLP201
T00670022 10072 20050 50004





000
SAUS41 KLWX 201106
MTRRSP
METAR KRSP 201054Z AUTO 23006KT 10SM CLR 06/M01 RMK AO2 SLPNO
T00611011 $





000
SAUS41 KLWX 201100
MTRRYT
METAR KRYT 201053Z AUTO 23003KT 10SM CLR 03/01 A3007 RMK AO2 SLP190
T00280006 $





000
SAUS41 KLWX 201059 COR
MTRDMH
METAR KDMH 201054Z AUTO 07/02 A3012 RMK AO1 SLP199 T00670022





000
SAUS41 KLWX 201059 COR
MTRDMH
METAR KDMH 201054Z AUTO 07/02 A3012 RMK AO1 SLP199 T00670022





000
SAUS41 KLWX 201055
MTRNAK
METAR KNAK 201054Z AUTO 00000KT 10SM CLR 06/03 A3012 RMK AO2 SLP202
T00560028 $





000
SAUS41 KLWX 201005
MTRRSP
METAR KRSP 200954Z AUTO 26004KT 10SM CLR 06/01 RMK AO2 SLPNO
T00610006 $





000
SAUS41 KLWX 201005
MTRRSP
METAR KRSP 200954Z AUTO 26004KT 10SM CLR 06/01 RMK AO2 SLPNO
T00610006 $





000
SAUS41 KLWX 201000
MTRRYT
METAR KRYT 200953Z AUTO 00000KT 10SM CLR 03/01 A3006 RMK AO2 SLP186
T00330011 $





000
SAUS41 KLWX 201000
MTRRYT
METAR KRYT 200953Z AUTO 00000KT 10SM CLR 03/01 A3006 RMK AO2 SLP186
T00330011 $





000
SAUS41 KLWX 200959 COR
MTRDMH
METAR KDMH 200954Z AUTO 07/02 A3011 RMK AO1 SLP197 T00670017





000
SAUS41 KLWX 200959 COR
MTRDMH
METAR KDMH 200954Z AUTO 07/02 A3011 RMK AO1 SLP197 T00670017





000
SAUS41 KLWX 200955
MTRNAK
METAR KNAK 200954Z AUTO 00000KT 10SM CLR 06/03 A3012 RMK AO2 SLP201
T00560028 $





000
SAUS41 KLWX 200955
MTRNAK
METAR KNAK 200954Z AUTO 00000KT 10SM CLR 06/03 A3012 RMK AO2 SLP201
T00560028 $





000
SAUS41 KLWX 200906
MTRRSP
METAR KRSP 200854Z AUTO 30007KT 10SM CLR 06/00 RMK AO2 SLPNO
T00610000 $





000
SAUS41 KLWX 200900
MTRRYT
METAR KRYT 200853Z AUTO 00000KT 10SM CLR 03/01 A3006 RMK AO2 SLP185
T00280006 56006 $





000
SAUS41 KLWX 200859 COR
MTRDMH
METAR KDMH 200854Z AUTO 07/02 A3011 RMK AO1 SLP194 T00720017 55002





000
SAUS41 KLWX 200855
MTRNAK
METAR KNAK 200854Z AUTO 00000KT 10SM CLR 05/03 A3011 RMK AO2 SLP197
T00500033 55001 $





000
SAUS41 KLWX 200805
MTRRSP
METAR KRSP 200754Z AUTO VRB06KT 10SM CLR 06/00 RMK AO2 SLPNO
T00610000 $





000
SAUS41 KLWX 200805
MTRRSP
METAR KRSP 200754Z AUTO VRB06KT 10SM CLR 06/00 RMK AO2 SLPNO
T00610000 $





000
SAUS41 KLWX 200800
MTRRYT
METAR KRYT 200753Z AUTO 00000KT 10SM CLR 03/01 A3007 RMK AO2 SLP186
T00330006 $





000
SAUS41 KLWX 200759 COR
MTRDMH
METAR KDMH 200754Z AUTO 08/02 A3010 RMK AO1 SLP193 T00780017





000
SAUS41 KLWX 200759 COR
MTRDMH
METAR KDMH 200754Z AUTO 08/02 A3010 RMK AO1 SLP193 T00780017





000
SAUS41 KLWX 200755
MTRNAK
METAR KNAK 200754Z AUTO 00000KT 10SM CLR 07/04 A3010 RMK AO2 SLP194
T00670039 $





000
SAUS41 KLWX 200706
MTRRSP
METAR KRSP 200654Z AUTO 30006KT 10SM CLR 06/M01 RMK AO2 SLPNO
T00611006 $





000
SAUS41 KLWX 200700
MTRRYT
METAR KRYT 200653Z AUTO 00000KT 10SM CLR 04/01 A3007 RMK AO2 SLP188
T00390011 $





000
SAUS41 KLWX 200659 COR
MTRDMH
METAR KDMH 200654Z AUTO 08/02 A3011 RMK AO1 SLP195 T00830017





000
SAUS41 KLWX 200655
MTRNAK
METAR KNAK 200654Z AUTO 24003KT 10SM CLR 06/02 A3011 RMK AO2 SLP199
T00610022





000
SAUS41 KLWX 200605
MTRRSP
METAR KRSP 200554Z AUTO 28008KT 10SM CLR 06/M01 RMK AO2 SLPNO
T00561011 10072 20056 $





000
SAUS41 KLWX 200600
MTRRYT
METAR KRYT 200553Z AUTO 00000KT 10SM CLR 03/01 A3008 RMK AO2 SLP192
T00330011 10094 20033 50001 $





000
SAUS41 KLWX 200558 COR
MTRDMH
METAR KDMH 200554Z AUTO 09/02 A3011 RMK AO1 SLP196 T00890022 10128
20089 50001





000
SAUS41 KLWX 200555
MTRNAK
METAR KNAK 200554Z AUTO 28003KT 10SM CLR 07/02 A3011 RMK AO2 SLP198
T00720017 10111 20067 57001





000
SAUS41 KLWX 200506
MTRRSP
METAR KRSP 200454Z AUTO 29007KT 10SM CLR 06/M01 RMK AO2 SLPNO
T00611006 401110039 $





000
SAUS41 KLWX 200500
MTRRYT
METAR KRYT 200453Z AUTO 00000KT 10SM CLR 04/01 A3008 RMK AO2 SLP193
T00440011 401280044 $





000
SAUS41 KLWX 200459 COR
MTRDMH
METAR KDMH 200454Z AUTO 09/02 A3011 RMK AO1 SLP197 T00940022
401440089





000
SAUS41 KLWX 200455
MTRNAK
METAR KNAK 200454Z AUTO 00000KT 10SM CLR 08/02 A3011 RMK AO2 SLP197
T00780017 401500072





000
SAUS41 KLWX 200405
MTRRSP
METAR KRSP 200354Z AUTO 30005KT 10SM CLR 06/M01 RMK AO2 SLPNO
T00561006 $





000
SAUS41 KLWX 200400
MTRRYT
METAR KRYT 200353Z AUTO 00000KT 10SM CLR 06/01 A3007 RMK AO2 SLP190
T00560011 $





000
SAUS41 KLWX 200359 COR
MTRDMH
METAR KDMH 200354Z AUTO 09/02 A3012 RMK AO1 SLP199 T00940017





000
SAUS41 KLWX 200355
MTRNAK
METAR KNAK 200354Z AUTO 26003KT 10SM CLR 08/02 A3012 RMK AO2 SLP200
T00830017





000
SAUS41 KLWX 200306
MTRRSP
METAR KRSP 200254Z AUTO 31007KT 10SM CLR 06/01 RMK AO2 SLPNO
T00610006 $





000
SAUS41 KLWX 200300
MTRRYT
METAR KRYT 200253Z AUTO 00000KT 10SM CLR 07/01 A3007 RMK AO2 SLP190
T00670011 53006 $





000
SAUS41 KLWX 200259 COR
MTRDMH
METAR KDMH 200254Z AUTO 10/01 A3011 RMK AO1 SLP195 T01000006 51014





000
SAUS41 KLWX 200255
MTRNAK
METAR KNAK 200254Z AUTO 25004KT 10SM CLR 09/01 A3011 RMK AO2 SLP198
T00890011 51017





000
SAUS41 KLWX 200205
MTRRSP
METAR KRSP 200154Z AUTO 33007KT 10SM CLR 07/00 RMK AO2 SLPNO
T00670000 $





000
SAUS41 KLWX 200200
MTRRYT
METAR KRYT 200153Z AUTO 00000KT 10SM CLR 09/00 A3007 RMK AO2 SLP186
T00890000 $





000
SAUS41 KLWX 200159 COR
MTRDMH
METAR KDMH 200154Z AUTO 11/01 A3010 RMK AO1 SLP192 T01060011





000
SAUS41 KLWX 200155
MTRNAK
METAR KNAK 200154Z AUTO 28003KT 10SM CLR 09/02 A3010 RMK AO2 SLP193
T00890017





000
SAUS41 KLWX 200106
MTRRSP
METAR KRSP 200054Z AUTO 33008KT 10SM CLR 07/M01 RMK AO2 SLPNO
T00671006 $





000
SAUS41 KLWX 200100
MTRRYT
METAR KRYT 200053Z AUTO 00000KT 10SM CLR 09/00 A3006 RMK AO2 SLP186
T00890000 $





000
SAUS41 KLWX 200059 COR
MTRDMH
METAR KDMH 200054Z AUTO 12/M01 A3008 RMK AO1 SLP186 T01221006





000
SAUS41 KLWX 200055
MTRNAK
METAR KNAK 200054Z AUTO 26004KT 10SM CLR 09/01 A3008 RMK AO2 SLP188
T00940006





000
SAUS41 KLWX 200005
MTRRSP
METAR KRSP 192354Z AUTO 33009G17KT 300V010 10SM CLR 07/M01 RMK AO2
SLPNO T00721011 10111 20072 $





000
SAUS41 KLWX 200005
MTRRSP
METAR KRSP 192354Z AUTO 33009G17KT 300V010 10SM CLR 07/M01 RMK AO2
SLPNO T00721011 10111 20072 $





000
SAUS41 KLWX 200000
MTRRYT
METAR KRYT 192353Z AUTO 00000KT 10SM CLR 09/00 A3006 RMK AO2 SLP182
T00940000 10128 20094 53009 $





000
SAUS41 KLWX 200000
MTRRYT
METAR KRYT 192353Z AUTO 00000KT 10SM CLR 09/00 A3006 RMK AO2 SLP182
T00940000 10128 20094 53009 $





000
SAUS41 KLWX 200000 COR
MTRDMH
METAR KDMH 192354Z AUTO 13/M01 A3007 RMK AO1 SLP181 T01281011 10144
20122 51013





000
SAUS41 KLWX 200000 COR
MTRDMH
METAR KDMH 192354Z AUTO 13/M01 A3007 RMK AO1 SLP181 T01281011 10144
20122 51013





000
SAUS41 KLWX 192355
MTRNAK
METAR KNAK 192354Z AUTO 27003KT 10SM CLR 11/00 A3006 RMK AO2 SLP182
T01060000 10150 20106 51013





000
SAUS41 KLWX 192355
MTRNAK
METAR KNAK 192354Z AUTO 27003KT 10SM CLR 11/00 A3006 RMK AO2 SLP182
T01060000 10150 20106 51013





000
SAUS41 KLWX 192306
MTRRSP
METAR KRSP 192254Z AUTO 33009G18KT 10SM CLR 07/00 RMK AO2 SLPNO
T00720000 $





000
SAUS41 KLWX 192306
MTRRSP
METAR KRSP 192254Z AUTO 33009G18KT 10SM CLR 07/00 RMK AO2 SLPNO
T00720000 $





000
SAUS41 KLWX 192300
MTRRYT
METAR KRYT 192253Z AUTO 00000KT 10SM CLR 11/M01 A3004 RMK AO2 SLP176
T01061006 $





000
SAUS41 KLWX 192300
MTRRYT
METAR KRYT 192253Z AUTO 00000KT 10SM CLR 11/M01 A3004 RMK AO2 SLP176
T01061006 $





000
SAUS41 KLWX 192259 COR
MTRDMH
METAR KDMH 192254Z AUTO 13/M02 A3006 RMK AO1 SLP178 T01281022





000
SAUS41 KLWX 192259 COR
MTRDMH
METAR KDMH 192254Z AUTO 13/M02 A3006 RMK AO1 SLP178 T01281022





000
SAUS41 KLWX 192255
MTRNAK
METAR KNAK 192254Z AUTO 28003KT 10SM CLR 12/M01 A3006 RMK AO2 SLP180
T01221006





000
SAUS41 KLWX 192255
MTRNAK
METAR KNAK 192254Z AUTO 28003KT 10SM CLR 12/M01 A3006 RMK AO2 SLP180
T01221006





000
SAUS41 KLWX 192205
MTRRSP
METAR KRSP 192154Z AUTO 32008G15KT 280V360 10SM CLR 09/M01 RMK AO2
SLPNO T00891011 $





000
SAUS41 KLWX 192200
MTRRYT
METAR KRYT 192153Z AUTO 00000KT 10SM FEW001 12/M02 A3003 RMK AO2
SLP171 T01171017 $





000
SAUS41 KLWX 192159 COR
MTRDMH
METAR KDMH 192154Z AUTO 14/M04 A3004 RMK AO1 SLP173 T01441039





000
SAUS41 KLWX 192155
MTRNAK
METAR KNAK 192154Z AUTO 31009KT 10SM CLR 14/00 A3004 RMK AO2 SLP173
T01440000





000
SAUS41 KLWX 192106
MTRRSP
METAR KRSP 192054Z AUTO 31009G20KT 270V350 10SM CLR 10/M02 RMK AO2
SLPNO T01001017 $





000
SAUS41 KLWX 192100
MTRRYT
METAR KRYT 192053Z AUTO VRB05KT 10SM CLR 12/M02 A3002 RMK AO2 SLP168
T01221022 55005 $





000
SAUS41 KLWX 192059 COR
MTRDMH
METAR KDMH 192054Z AUTO 14/M04 A3003 RMK AO1 SLP169 T01391044 55007





000
SAUS41 KLWX 192055
MTRNAK
METAR KNAK 192054Z AUTO 31011G18KT 10SM CLR 14/M01 A3002 RMK AO2
SLP169 T01441006 53001





000
SAUS41 KLWX 192005
MTRRSP
METAR KRSP 191954Z AUTO 33009G22KT 290V010 10SM CLR 11/M02 RMK AO2
SLPNO T01111022 $





000
SAUS41 KLWX 192000
MTRRYT
METAR KRYT 191953Z AUTO 00000KT 10SM CLR 13/M02 A3001 RMK AO2 SLP166
T01281022 $





000
SAUS41 KLWX 191959 COR
MTRDMH
METAR KDMH 191954Z AUTO 14/M02 A3002 RMK AO1 SLP167 T01391022





000
SAUS41 KLWX 191955
MTRNAK
METAR KNAK 191954Z AUTO 30008G17KT 10SM CLR 14/M01 A3002 RMK AO2
SLP166 T01441011





000
SAUS41 KLWX 191906
MTRRSP
METAR KRSP 191854Z AUTO 33009G21KT 280V010 10SM CLR 11/M03 RMK AO2
SLPNO T01061028 $





000
SAUS41 KLWX 191900 COR
MTRDMH
METAR KDMH 191854Z AUTO 14/M02 A3002 RMK AO1 SLP165 T01391022





000
SAUS41 KLWX 191900
MTRRYT
METAR KRYT 191853Z AUTO VRB06KT 10SM CLR 12/M03 A3002 RMK AO2 SLP168
T01171028 $





000
SAUS41 KLWX 191856
MTRNAK
METAR KNAK 191854Z AUTO 32011G19KT 10SM CLR 14/01 A3001 RMK AO2
SLP166 T01390006





000
SAUS41 KLWX 191805
MTRRSP
METAR KRSP 191754Z AUTO 34011G23KT 290V060 10SM CLR 09/M03 RMK AO2
PK WND 35027/1726 SLPNO T00891033 10094 20039 $





000
SAUS41 KLWX 191800
MTRRYT
METAR KRYT 191753Z AUTO VRB05KT 10SM CLR 11/M03 A3003 RMK AO2 SLP173
60001 T01111028 10111 20061 58004 $





000
SAUS41 KLWX 191759 COR
MTRDMH
METAR KDMH 191754Z AUTO 13/M03 A3005 RMK AO1 SLP175 T01281028 10128
20100 51002





000
SAUS41 KLWX 191755
MTRNAK
METAR KNAK 191754Z AUTO 32011KT 10SM CLR 13/01 A3002 RMK AO2 SLP167
T01330006 10133 20111 58002





000
SAUS41 KLWX 191705
MTRRSP
METAR KRSP 191654Z AUTO 35008G23KT 200V040 10SM CLR 09/M02 RMK AO2
PK WND 33026/1613 SLPNO T00891022 $





000
SAUS41 KLWX 191700
MTRRYT
METAR KRYT 191653Z AUTO VRB05G15KT 10SM CLR 10/M02 A3004 RMK AO2
SLP175 T01001022 $





000
SAUS41 KLWX 191659 COR
MTRDMH
METAR KDMH 191654Z AUTO 12/M02 A3005 RMK AO1 SLP174 T01171022





000
SAUS41 KLWX 191655
MTRNAK
METAR KNAK 191654Z AUTO 30016G22KT 10SM CLR 13/00 A3003 RMK AO2
SLP170 T01280000





000
SAUS41 KLWX 191605
MTRRSP
METAR KRSP 191554Z AUTO 34011G21KT 10SM CLR 08/M02 RMK AO2 PK WND
36027/1456 SLPNO T00781022 $





000
SAUS41 KLWX 191600
MTRRYT
METAR KRYT 191553Z AUTO VRB06KT 10SM CLR 09/M02 A3005 RMK AO2 SLP179
T00941017 $





000
SAUS41 KLWX 191559 COR
MTRDMH
METAR KDMH 191554Z AUTO 12/M01 A3006 RMK AO1 SLP177 T01171011





000
SAUS41 KLWX 191555
MTRNAK
METAR KNAK 191554Z AUTO 32010G21KT 10SM CLR 12/01 A3003 RMK AO2
SLP172 T01220006





000
SAUS41 KLWX 191505
MTRRSP
METAR KRSP 191454Z AUTO 35013G25KT 10SM FEW032 07/M02 RMK AO2 PK WND
31026/1444 SLPNO T00671017 $





000
SAUS41 KLWX 191500
MTRRYT
METAR KRYT 191453Z AUTO 01008G18KT 340V060 10SM CLR 08/M02 A3005 RMK
AO2 PK WND 01030/1358 SLP179 P0001 60001 T00831022 51018 $





000
SAUS41 KLWX 191459 COR
MTRDMH
METAR KDMH 191454Z AUTO 11/M02 A3004 RMK AO1 SLP173 T01061022 51021





000
SAUS41 KLWX 191455
MTRNAK
METAR KNAK 191454Z AUTO 31012G19KT 10SM FEW047 12/02 A3003 RMK AO2
SLP170 T01170017 51017





000
SAUS41 KLWX 191405
MTRRSP
METAR KRSP 191354Z AUTO 33012G27KT 10SM BKN030 05/M02 RMK AO2 PK WND
33027/1350 SLPNO T00501022 $





000
SAUS41 KLWX 191400
MTRRYT
METAR KRYT 191353Z AUTO VRB06G17KT 10SM FEW041 08/M02 A3004 RMK AO2
SLP177 T00781022 $





000
SAUS41 KLWX 191359 COR
MTRDMH
METAR KDMH 191354Z AUTO 11/M01 A3003 RMK AO1 SLP169 T01061006





000
SAUS41 KLWX 191355
MTRNAK
METAR KNAK 191354Z AUTO 31012G26KT 10SM BKN045 12/03 A3002 RMK AO2
PK WND 33026/1348 SLP167 T01170028





000
SAUS41 KLWX 191306
MTRRSP
METAR KRSP 191254Z AUTO 34010G20KT 300V030 10SM BKN034 04/M02 RMK
AO2 PK WND 35026/1237 SLPNO T00441022 $





000
SAUS41 KLWX 191300
MTRRYT
METAR KRYT 191253Z AUTO VRB05G17KT 10SM CLR 07/M02 A3002 RMK AO2
SLP170 T00671022 $





000
SAUS41 KLWX 191259 COR
MTRDMH
METAR KDMH 191254Z AUTO 11/01 A3002 RMK AO1 SLP165 T01060011





000
SAUS41 KLWX 191255
MTRNAK
METAR KNAK 191254Z AUTO 31014G23KT 10SM OVC043 11/03 A3001 RMK AO2
PK WND 31026/1229 SLP162 T01110028





000
SAUS41 KLWX 191205
MTRRSP
METAR KRSP 191154Z AUTO 34010G26KT 310V010 10SM BKN030 04/M02 RMK
AO2 PK WND 35027/1140 SLPNO 60000 T00391017 10067 20039 $





000
SAUS41 KLWX 191200
MTRRYT
METAR KRYT 191153Z AUTO VRB04KT 10SM OVC040 07/M02 A2999 RMK AO2
SLP161 60000 T00671017 10094 20067 53026 $





000
SAUS41 KLWX 191159 COR
MTRDMH
METAR KDMH 191154Z AUTO 11/02 A2998 RMK AO1 SLP152 T01060022 10128
20106 53032





000
SAUS41 KLWX 191155
MTRNAK
METAR KNAK 191154Z AUTO 30008KT 10SM FEW034 BKN048 11/05 A2998 RMK
AO2 SLP152 T01110050 10128 20106 53030





000
SAUS41 KLWX 191105
MTRRSP
METAR KRSP 191054Z AUTO 35014G32KT 290V040 10SM FEW022 BKN031 04/00
RMK AO2 PK WND 35032/1048 SLPNO T00440000 $





000
SAUS41 KLWX 191100
MTRRYT
METAR KRYT 191053Z AUTO 33007KT 290V030 10SM SCT023 BKN034 07/01
A2997 RMK AO2 SLP151 T00720011 $





000
SAUS41 KLWX 191059 COR
MTRDMH
METAR KDMH 191054Z AUTO 11/04 A2994 RMK AO1 SLP139 T01060039





000
SAUS41 KLWX 191055
MTRNAK
METAR KNAK 191054Z AUTO 31010KT 10SM FEW034 BKN050 11/06 A2994 RMK
AO2 SLP141 T01110056





000
SAUS41 KLWX 191044
MTRRSP
SPECI KRSP 191033Z AUTO 34012G24KT 10SM BKN022 BKN028 04/01 RMK AO2
$





000
SAUS41 KLWX 191044
MTRRSP
SPECI KRSP 191033Z AUTO 34012G24KT 10SM BKN022 BKN028 04/01 RMK AO2
$





000
SAUS41 KLWX 191019
MTRRSP
SPECI KRSP 191008Z AUTO 34009G22KT 290V020 10SM FEW017 SCT023 SCT031
05/02 RMK AO2 $





000
SAUS41 KLWX 191005
MTRRSP
METAR KRSP 190954Z AUTO 33010G21KT 10SM SCT020 BKN027 BKN032 05/02
RMK AO2 PK WND 34028/0910 SLPNO T00500022 $





000
SAUS41 KLWX 191000
MTRRYT
METAR KRYT 190953Z AUTO VRB03KT 10SM OVC034 08/02 A2993 RMK AO2
SLP138 T00780022 $





000
SAUS41 KLWX 191000
MTRRYT
METAR KRYT 190953Z AUTO VRB03KT 10SM OVC034 08/02 A2993 RMK AO2
SLP138 T00780022 $





000
SAUS41 KLWX 190959 COR
MTRDMH
METAR KDMH 190954Z AUTO 11/03 A2992 RMK AO1 SLP130 T01110028





000
SAUS41 KLWX 190959 COR
MTRDMH
METAR KDMH 190954Z AUTO 11/03 A2992 RMK AO1 SLP130 T01110028





000
SAUS41 KLWX 190956
MTRNAK
METAR KNAK 190954Z AUTO 35012G20KT 10SM BKN047 12/05 A2991 RMK AO2
SLP130 T01220050





000
SAUS41 KLWX 190956
MTRNAK
METAR KNAK 190954Z AUTO 35012G20KT 10SM BKN047 12/05 A2991 RMK AO2
SLP130 T01220050





000
SAUS41 KLWX 190949
MTRRYT
SPECI KRYT 190942Z AUTO VRB05KT 10SM SCT025 OVC032 08/02 A2993 RMK
AO2 $





000
SAUS41 KLWX 190949
MTRRYT
SPECI KRYT 190942Z AUTO VRB05KT 10SM SCT025 OVC032 08/02 A2993 RMK
AO2 $





000
SAUS41 KLWX 190923
MTRRYT
SPECI KRYT 190922Z AUTO VRB04KT 10SM BKN025 BKN033 BKN042 08/03
A2992 RMK AO2 $





000
SAUS41 KLWX 190905
MTRRSP
METAR KRSP 190854Z AUTO 33013G23KT 300V360 10SM FEW015 BKN021 OVC030
06/03 RMK AO2 SLPNO 60000 T00560033 $





000
SAUS41 KLWX 190900
MTRRYT
METAR KRYT 190853Z AUTO VRB04KT 10SM OVC040 08/03 A2991 RMK AO2
SLP132 60000 T00830028 53010 $





000
SAUS41 KLWX 190859 COR
MTRDMH
METAR KDMH 190854Z AUTO 12/03 A2989 RMK AO1 SLP120 T01170028 53012





000
SAUS41 KLWX 190855
MTRNAK
METAR KNAK 190854Z AUTO 31009G19KT 10SM BKN048 OVC095 12/06 A2989
RMK AO2 SLP122 T01220056 53013





000
SAUS41 KLWX 190851
MTRRSP
SPECI KRSP 190840Z AUTO 34010G22KT 280V040 10SM SCT013 BKN019 OVC030
06/03 RMK AO2 $





000
SAUS41 KLWX 190840
MTRRSP
SPECI KRSP 190829Z AUTO 34008G20KT 300V010 10SM BKN013 BKN019 OVC026
06/03 RMK AO2 $





000
SAUS41 KLWX 190806
MTRRSP
METAR KRSP 190754Z AUTO 34009G17KT 10SM SCT018 BKN026 OVC031 06/04
RMK AO2 RAE0656 SLPNO P0000 T00560039 $





000
SAUS41 KLWX 190800
MTRRYT
METAR KRYT 190753Z AUTO VRB06KT 10SM OVC031 08/04 A2990 RMK AO2
RAE0655 SLP127 P0000 T00830039 $





000
SAUS41 KLWX 190759 COR
MTRDMH
METAR KDMH 190754Z AUTO 12/04 A2987 RMK AO1 SLP114 T01220039





000
SAUS41 KLWX 190755
MTRNAK
METAR KNAK 190754Z AUTO 30006KT 10SM OVC050 12/06 A2987 RMK AO2
SLP116 T01220056





000
SAUS41 KLWX 190705
MTRRSP
METAR KRSP 190654Z AUTO 34009G17KT 280V060 7SM -RA FEW011 BKN018
OVC028 06/04 RMK AO2 RAB30 SLPNO P0000 T00560039 $





000
SAUS41 KLWX 190700
MTRRYT
METAR KRYT 190653Z AUTO 31005KT 8SM -RA BKN026 BKN033 OVC050 08/05
A2989 RMK AO2 RAB43 SLP121 P0000 T00830050 $





000
SAUS41 KLWX 190659 COR
MTRDMH
METAR KDMH 190654Z AUTO 13/04 A2987 RMK AO1 SLP113 T01280039





000
SAUS41 KLWX 190655
MTRNAK
METAR KNAK 190654Z AUTO 30005KT 10SM OVC090 12/05 A2986 RMK AO2
SLP113 T01170050





000
SAUS41 KLWX 190606
MTRRSP
METAR KRSP 190554Z AUTO VRB05KT 10SM BKN021 OVC028 07/03 RMK AO2
SLPNO T00670033 10078 20067 $





000
SAUS41 KLWX 190600
MTRRYT
METAR KRYT 190553Z AUTO VRB03KT 10SM OVC040 09/03 A2986 RMK AO2
SLP113 T00940033 10106 20094 53008 $





000
SAUS41 KLWX 190559 COR
MTRDMH
METAR KDMH 190554Z AUTO 12/04 A2985 RMK AO1 SLP108 T01220044 10144
20117 53002





000
SAUS41 KLWX 190555
MTRNAK
METAR KNAK 190554Z AUTO 28005KT 10SM BKN090 11/06 A2985 RMK AO2
SLP109 T01110056 10144 20111 55001





000
SAUS41 KLWX 190547
MTRRSP
SPECI KRSP 190536Z AUTO 33007KT 10SM BKN024 OVC030 07/03 RMK AO2 $





000
SAUS41 KLWX 190505
MTRRSP
METAR KRSP 190454Z AUTO 34011G21KT 300V040 10SM SCT029 SCT039 07/03
RMK AO2 PK WND 33026/0439 SLPNO T00720033 401560067 $





000
SAUS41 KLWX 190500
MTRRYT
METAR KRYT 190453Z AUTO VRB03KT 10SM BKN039 OVC050 10/04 A2984 RMK
AO2 SLP106 T01000039 401720094 $





000
SAUS41 KLWX 190500
MTRRYT
METAR KRYT 190453Z AUTO VRB03KT 10SM BKN039 OVC050 10/04 A2984 RMK
AO2 SLP106 T01000039 401720094 $





000
SAUS41 KLWX 190459 COR
MTRDMH
METAR KDMH 190454Z AUTO 12/04 A2984 RMK AO1 SLP105 T01170044
402110117





000
SAUS41 KLWX 190459 COR
MTRDMH
METAR KDMH 190454Z AUTO 12/04 A2984 RMK AO1 SLP105 T01170044
402110117





000
SAUS41 KLWX 190455
MTRNAK
METAR KNAK 190454Z AUTO 28007KT 10SM CLR 11/05 A2985 RMK AO2 SLP108
T01110050 402110111





000
SAUS41 KLWX 190455
MTRNAK
METAR KNAK 190454Z AUTO 28007KT 10SM CLR 11/05 A2985 RMK AO2 SLP108
T01110050 402110111





000
SAUS41 KLWX 190406
MTRRSP
METAR KRSP 190354Z AUTO 32009G18KT 10SM BKN026 OVC033 08/03 RMK AO2
SLPNO T00780033 $





000
SAUS41 KLWX 190406
MTRRSP
METAR KRSP 190354Z AUTO 32009G18KT 10SM BKN026 OVC033 08/03 RMK AO2
SLPNO T00780033 $





000
SAUS41 KLWX 190400
MTRRYT
METAR KRYT 190353Z AUTO 00000KT 10SM OVC037 10/04 A2985 RMK AO2
SLP107 T01000039 $





000
SAUS41 KLWX 190400
MTRRYT
METAR KRYT 190353Z AUTO 00000KT 10SM OVC037 10/04 A2985 RMK AO2
SLP107 T01000039 $





000
SAUS41 KLWX 190359 COR
MTRDMH
METAR KDMH 190354Z AUTO 12/04 A2985 RMK AO1 SLP107 T01170044





000
SAUS41 KLWX 190359 COR
MTRDMH
METAR KDMH 190354Z AUTO 12/04 A2985 RMK AO1 SLP107 T01170044





000
SAUS41 KLWX 190355
MTRNAK
METAR KNAK 190354Z AUTO 30006KT 10SM CLR 12/06 A2985 RMK AO2 SLP109
T01220056





000
SAUS41 KLWX 190355
MTRNAK
METAR KNAK 190354Z AUTO 30006KT 10SM CLR 12/06 A2985 RMK AO2 SLP109
T01220056





000
SAUS41 KLWX 190305
MTRRSP
METAR KRSP 190254Z AUTO VRB04KT 10SM BKN027 OVC033 08/03 RMK AO2
SLPNO T00780033 $





000
SAUS41 KLWX 190300
MTRRYT
METAR KRYT 190253Z AUTO 00000KT 10SM OVC041 10/04 A2984 RMK AO2
SLP104 T01000039 51012 $





000
SAUS41 KLWX 190259 COR
MTRDMH
METAR KDMH 190254Z AUTO 12/04 A2985 RMK AO1 SLP107 T01220044 51015





000
SAUS41 KLWX 190255
MTRNAK
METAR KNAK 190254Z AUTO 29008KT 10SM CLR 12/05 A2985 RMK AO2 SLP110
T01220050 50014





000
SAUS41 KLWX 190205
MTRRSP
METAR KRSP 190154Z AUTO VRB06G14KT 10SM BKN031 07/03 RMK AO2 SLPNO
T00670033 $





000
SAUS41 KLWX 190200
MTRRYT
METAR KRYT 190153Z AUTO 00000KT 10SM SCT041 09/04 A2983 RMK AO2
SLP100 T00940039 $





000
SAUS41 KLWX 190159 COR
MTRDMH
METAR KDMH 190154Z AUTO 13/04 A2984 RMK AO1 SLP105 T01280044





000
SAUS41 KLWX 190158
MTRRSP
SPECI KRSP 190147Z AUTO 33008G14KT 10SM BKN031 07/03 RMK AO2 $





000
SAUS41 KLWX 190155
MTRNAK
METAR KNAK 190154Z AUTO 30008KT 10SM CLR 13/05 A2985 RMK AO2 SLP110
T01330050





000
SAUS41 KLWX 190145
MTRRSP
SPECI KRSP 190134Z AUTO 33009G16KT 10SM BKN028 BKN033 07/03 RMK AO2
$





000
SAUS41 KLWX 190105
MTRRSP
METAR KRSP 190054Z AUTO VRB06G15KT 10SM CLR 07/03 RMK AO2 SLPNO
T00720028 $





000
SAUS41 KLWX 190100
MTRRYT
METAR KRYT 190053Z AUTO VRB03KT 10SM CLR 09/04 A2982 RMK AO2 SLP098
T00940039 $





000
SAUS41 KLWX 190059 COR
MTRDMH
METAR KDMH 190054Z AUTO 13/04 A2983 RMK AO1 SLP102 T01330044





000
SAUS41 KLWX 190055
MTRNAK
METAR KNAK 190054Z AUTO VRB06KT 10SM CLR 13/05 A2983 RMK AO2 SLP104
T01330050





000
SAUS41 KLWX 190005
MTRRSP
METAR KRSP 182354Z AUTO 32012G21KT 290V350 10SM FEW100 08/03 RMK AO2
PK WND 33027/2327 SLPNO T00780033 10139 20078 $





000
SAUS41 KLWX 190000
MTRRYT
METAR KRYT 182353Z AUTO 25007KT 230V340 10SM CLR 11/03 A2980 RMK AO2
SLP092 T01060033 10150 20106 51015 $





000
SAUS41 KLWX 182359 COR
MTRDMH
METAR KDMH 182354Z AUTO 14/04 A2980 RMK AO1 SLP091 T01440039 10200
20144 53029





000
SAUS41 KLWX 182355
MTRNAK
METAR KNAK 182354Z AUTO 30008KT 10SM CLR 14/06 A2981 RMK AO2 SLP096
T01440056 10211 20144 51028





000
SAUS41 KLWX 182305
MTRRSP
METAR KRSP 182254Z AUTO 33012G31KT 300V360 10SM CLR 08/03 RMK AO2 PK
WND 33031/2253 SLPNO T00830033 $





000
SAUS41 KLWX 182300
MTRRYT
METAR KRYT 182253Z AUTO VRB06KT 10SM CLR 11/03 A2979 RMK AO2 SLP086
T01110033 $





000
SAUS41 KLWX 182259 COR
MTRDMH
METAR KDMH 182254Z AUTO 15/04 A2977 RMK AO1 SLP082 T01500039





000
SAUS41 KLWX 182255
MTRNAK
METAR KNAK 182254Z AUTO 30009G18KT 10SM OVC070 16/05 A2978 RMK AO2
SLP088 T01560050





000
SAUS41 KLWX 182205
MTRRSP
METAR KRSP 182154Z AUTO 33009G20KT 10SM OVC047 09/03 RMK AO2 SLPNO
T00940033 $





000
SAUS41 KLWX 182205
MTRRSP
METAR KRSP 182154Z AUTO 33009G20KT 10SM OVC047 09/03 RMK AO2 SLPNO
T00940033 $





000
SAUS41 KLWX 182200
MTRRYT
METAR KRYT 182153Z AUTO VRB06KT 10SM BKN050 OVC065 12/04 A2979 RMK
AO2 SLP085 T01170039 $





000
SAUS41 KLWX 182159 COR
MTRDMH
METAR KDMH 182154Z AUTO 16/04 A2974 RMK AO1 SLP072 T01610044





000
SAUS41 KLWX 182155
MTRNAK
METAR KNAK 182154Z AUTO 29011G23KT 10SM BKN070 16/06 A2976 RMK AO2
SLP080 T01610061





000
SAUS41 KLWX 182155
MTRNAK
METAR KNAK 182154Z AUTO 29011G23KT 10SM BKN070 16/06 A2976 RMK AO2
SLP080 T01610061





000
SAUS41 KLWX 182105
MTRRSP
METAR KRSP 182054Z AUTO 32008G17KT 10SM BKN050 10/04 RMK AO2 SLPNO
T01000039 $





000
SAUS41 KLWX 182100
MTRRYT
METAR KRYT 182053Z AUTO 31007KT 280V360 10SM SCT055 13/04 A2976 RMK
AO2 SLP074 T01280039 51018 $





000
SAUS41 KLWX 182059 COR
MTRDMH
METAR KDMH 182054Z AUTO 17/04 A2972 RMK AO1 SLP062 T01670044 53011





000
SAUS41 KLWX 182055
MTRNAK
METAR KNAK 182054Z AUTO 30012G19KT 10SM BKN065 OVC080 18/08 A2973
RMK AO2 SLP068 T01780078 53019





000
SAUS41 KLWX 182005
MTRRSP
METAR KRSP 181954Z AUTO 33008KT 300V360 10SM BKN033 OVC043 11/04 RMK
AO2 PK WND 30027/1919 SLPNO T01060044 $





000
SAUS41 KLWX 182000
MTRRYT
METAR KRYT 181953Z AUTO 32007KT 280V360 10SM OVC044 13/05 A2975 RMK
AO2 SLP070 T01280050 $





000
SAUS41 KLWX 182000
MTRRYT
METAR KRYT 181953Z AUTO 32007KT 280V360 10SM OVC044 13/05 A2975 RMK
AO2 SLP070 T01280050 $





000
SAUS41 KLWX 181959 COR
MTRDMH
METAR KDMH 181954Z AUTO 18/06 A2969 RMK AO1 SLP052 T01830061





000
SAUS41 KLWX 181959 COR
MTRDMH
METAR KDMH 181954Z AUTO 18/06 A2969 RMK AO1 SLP052 T01830061





000
SAUS41 KLWX 181955
MTRNAK
METAR KNAK 181954Z AUTO 28012G19KT 10SM FEW060 OVC080 20/07 A2970
RMK AO2 SLP058 T02000072





000
SAUS41 KLWX 181955
MTRNAK
METAR KNAK 181954Z AUTO 28012G19KT 10SM FEW060 OVC080 20/07 A2970
RMK AO2 SLP058 T02000072





000
SAUS41 KLWX 181905
MTRRSP
METAR KRSP 181854Z AUTO 31012G30KT 10SM SCT032 SCT040 OVC050 11/03
RMK AO2 PK WND 31030/1850 SLPNO T01110033 $





000
SAUS41 KLWX 181900
MTRRYT
METAR KRYT 181853Z AUTO VRB04KT 10SM OVC055 14/04 A2972 RMK AO2
SLP060 T01390044 $





000
SAUS41 KLWX 181859 COR
MTRDMH
METAR KDMH 181854Z AUTO 20/07 A2969 RMK AO1 SLP055 T02000072





000
SAUS41 KLWX 181855
MTRNAK
METAR KNAK 181854Z AUTO 31008KT 10SM BKN065 20/07 A2968 RMK AO2
SLP051 T02000072





000
SAUS41 KLWX 181805
MTRRSP
METAR KRSP 181754Z AUTO 32011G22KT 290V360 10SM BKN035 OVC044 13/07
RMK AO2 PK WND 33026/1726 RAE1656 SLPNO P0000 60000 T01280072 10139
20117 $





000
SAUS41 KLWX 181800
MTRRYT
METAR KRYT 181753Z AUTO VRB05KT 10SM SCT034 BKN042 OVC055 14/07
A2970 RMK AO2 SLP055 T01440072 10161 20139 50002 $





000
SAUS41 KLWX 181759 COR
MTRDMH
METAR KDMH 181754Z AUTO 20/06 A2968 RMK AO1 SLP051 T02000061 10211
20144 51001





000
SAUS41 KLWX 181755
MTRNAK
METAR KNAK 181754Z AUTO 30009KT 10SM FEW080 21/07 A2967 RMK AO2
SLP049 T02060072 10211 20139 58002





000
SAUS41 KLWX 181725
MTRRSP
SPECI KRSP 181714Z AUTO 32008G19KT 10SM FEW024 OVC034 12/07 RMK AO2
RAE1656 P0000 $





000
SAUS41 KLWX 181717
MTRRSP
SPECI KRSP 181706Z AUTO 31011G19KT 10SM BKN027 OVC034 12/07 RMK AO2
RAE1656 P0000 $





000
SAUS41 KLWX 181705
MTRRSP
METAR KRSP 181654Z AUTO 32007G25KT 240V020 10SM -RA SCT026 BKN035
OVC043 12/07 RMK AO2 PK WND 27026/1624 RAB47 SLPNO P0000 T01170067 $





000
SAUS41 KLWX 181700
MTRRYT
METAR KRYT 181653Z AUTO VRB06G14KT 10SM OVC036 14/08 A2972 RMK AO2
SLP060 T01390078 $





000
SAUS41 KLWX 181700
MTRRYT
METAR KRYT 181653Z AUTO VRB06G14KT 10SM OVC036 14/08 A2972 RMK AO2
SLP060 T01390078 $





000
SAUS41 KLWX 181659 COR
MTRDMH
METAR KDMH 181654Z AUTO 21/07 A2968 RMK AO1 SLP051 T02060067





000
SAUS41 KLWX 181659 COR
MTRDMH
METAR KDMH 181654Z AUTO 21/07 A2968 RMK AO1 SLP051 T02060067





000
SAUS41 KLWX 181655
MTRNAK
METAR KNAK 181654Z AUTO 29012G19KT 10SM BKN075 21/07 A2968 RMK AO2
SLP051 T02060067





000
SAUS41 KLWX 181655
MTRNAK
METAR KNAK 181654Z AUTO 29012G19KT 10SM BKN075 21/07 A2968 RMK AO2
SLP051 T02060067





000
SAUS41 KLWX 181605
MTRRSP
METAR KRSP 181554Z AUTO 32009G18KT 280V350 10SM SCT022 BKN030 OVC039
12/07 RMK AO2 SLPNO T01220072 $





000
SAUS41 KLWX 181605
MTRRSP
METAR KRSP 181554Z AUTO 32009G18KT 280V350 10SM SCT022 BKN030 OVC039
12/07 RMK AO2 SLPNO T01220072 $





000
SAUS41 KLWX 181600
MTRRYT
METAR KRYT 181553Z AUTO 25005KT 10SM SCT034 OVC048 15/08 A2970 RMK
AO2 SLP057 T01500078 $





000
SAUS41 KLWX 181600 COR
MTRDMH
METAR KDMH 181554Z AUTO 21/06 A2969 RMK AO1 SLP053 T02060061





000
SAUS41 KLWX 181600
MTRRYT
METAR KRYT 181553Z AUTO 25005KT 10SM SCT034 OVC048 15/08 A2970 RMK
AO2 SLP057 T01500078 $





000
SAUS41 KLWX 181600 COR
MTRDMH
METAR KDMH 181554Z AUTO 21/06 A2969 RMK AO1 SLP053 T02060061





000
SAUS41 KLWX 181557
MTRRSP
SPECI KRSP 181546Z AUTO VRB05G17KT 10SM BKN022 BKN028 OVC036 12/07
RMK AO2 $





000
SAUS41 KLWX 181557
MTRRSP
SPECI KRSP 181546Z AUTO VRB05G17KT 10SM BKN022 BKN028 OVC036 12/07
RMK AO2 $





000
SAUS41 KLWX 181555
MTRNAK
METAR KNAK 181554Z AUTO 30009G16KT 10SM CLR 21/07 A2968 RMK AO2
SLP053 T02060072





000
SAUS41 KLWX 181555
MTRNAK
METAR KNAK 181554Z AUTO 30009G16KT 10SM CLR 21/07 A2968 RMK AO2
SLP053 T02060072





000
SAUS41 KLWX 181550
MTRRSP
SPECI KRSP 181539Z AUTO 30010G19KT 10SM SCT026 OVC034 13/07 RMK AO2
$





000
SAUS41 KLWX 181550
MTRRSP
SPECI KRSP 181539Z AUTO 30010G19KT 10SM SCT026 OVC034 13/07 RMK AO2
$





000
SAUS41 KLWX 181515
MTRRSP
SPECI KRSP 181504Z AUTO 32007KT 290V360 10SM BKN026 OVC033 12/07 RMK
AO2 $





000
SAUS41 KLWX 181505
MTRRSP
METAR KRSP 181454Z AUTO VRB06G21KT 10SM BKN030 OVC036 12/06 RMK AO2
SLPNO T01220061 $





000
SAUS41 KLWX 181500
MTRRYT
METAR KRYT 181453Z AUTO VRB03KT 10SM BKN038 BKN045 OVC050 15/07
A2970 RMK AO2 SLP054 T01500072 51017 $





000
SAUS41 KLWX 181500
MTRRYT
METAR KRYT 181453Z AUTO VRB03KT 10SM BKN038 BKN045 OVC050 15/07
A2970 RMK AO2 SLP054 T01500072 51017 $





000
SAUS41 KLWX 181459 COR
MTRDMH
METAR KDMH 181454Z AUTO 20/07 A2968 RMK AO1 SLP050 T02000072 50008





000
SAUS41 KLWX 181459 COR
MTRDMH
METAR KDMH 181454Z AUTO 20/07 A2968 RMK AO1 SLP050 T02000072 50008





000
SAUS41 KLWX 181455
MTRNAK
METAR KNAK 181454Z AUTO 29010KT 10SM CLR 19/11 A2968 RMK AO2 SLP051
T01940106 50012





000
SAUS41 KLWX 181455
MTRNAK
METAR KNAK 181454Z AUTO 29010KT 10SM CLR 19/11 A2968 RMK AO2 SLP051
T01940106 50012





000
SAUS41 KLWX 181405
MTRRSP
METAR KRSP 181354Z AUTO 31009G17KT 10SM OVC060 13/07 RMK AO2 SLPNO
T01330067 $





000
SAUS41 KLWX 181400
MTRRYT
METAR KRYT 181353Z AUTO VRB05KT 10SM BKN070 16/07 A2969 RMK AO2
SLP049 T01560072 $





    US Dept of Commerce
    National Oceanic and Atmospheric Administration
    National Weather Service
    1325 East West Highway
    Silver Spring, MD 20910
    Page Author: NWS Internet Services Team
Disclaimer
Information Quality
Credits
Glossary
Privacy Policy
Freedom of Information Act (FOIA)
About Us
Career Opportunities